Time;durP1;ratioP1;P1;durP2;ratioP2;P2;SDS_P1;SDS_P2;PMS_P1;PMS_P2;Temp;Humidity;BMP_temperature;BMP_pressure;BME280_temperature;BME280_humidity;BME280_pressure;Samples;Min_cycle;Max_cycle;Signal;HPM_P1;HPM_P2
2021/05/02 00:01:32;;;;;;;34.47;30.77;;;7.60;99.90;;;;;;5072990;28;20254;-76
2021/05/02 00:03:58;;;;;;;33.57;30.03;;;7.60;99.90;;;;;;5074629;28;20206;-76
2021/05/02 00:06:25;;;;;;;30.40;27.10;;;7.50;99.90;;;;;;5074542;28;20683;-76
2021/05/02 00:08:51;;;;;;;36.00;30.97;;;7.50;99.90;;;;;;5072864;28;20199;-76
2021/05/02 00:11:19;;;;;;;37.70;30.30;;;7.50;99.90;;;;;;5073321;28;20204;-76
2021/05/02 00:13:45;;;;;;;36.53;29.10;;;7.40;99.90;;;;;;5072480;28;20227;-76
2021/05/02 00:16:11;;;;;;;35.63;30.67;;;7.40;99.90;;;;;;5074252;28;20202;-76
2021/05/02 00:18:38;;;;;;;31.47;28.10;;;7.40;99.90;;;;;;5073192;28;20195;-76
2021/05/02 00:21:07;;;;;;;35.40;29.90;;;7.40;99.90;;;;;;5074585;28;20194;-76
2021/05/02 00:23:34;;;;;;;35.83;31.00;;;7.40;99.90;;;;;;5073124;28;20645;-76
2021/05/02 00:26:01;;;;;;;37.27;31.27;;;7.40;99.90;;;;;;5075016;28;20206;-76
2021/05/02 00:28:29;;;;;;;35.13;30.73;;;7.30;99.90;;;;;;5078860;28;20193;-76
2021/05/02 00:30:57;;;;;;;31.17;27.83;;;7.40;99.90;;;;;;5078601;28;20199;-76
2021/05/02 00:33:23;;;;;;;34.47;29.77;;;7.30;99.90;;;;;;5078996;28;20218;-76
2021/05/02 00:35:51;;;;;;;31.17;27.63;;;7.30;99.90;;;;;;5079278;28;20194;-76
2021/05/02 00:38:19;;;;;;;32.83;29.10;;;7.40;99.90;;;;;;5077787;28;20202;-76
2021/05/02 00:40:54;;;;;;;31.03;27.73;;;7.30;99.90;;;;;;5078486;28;20200;-77
2021/05/02 00:43:34;;;;;;;36.17;31.10;;;7.30;99.90;;;;;;5072024;28;20268;-76
2021/05/02 00:46:09;;;;;;;36.53;32.53;;;7.30;99.90;;;;;;5077833;28;20222;-76
2021/05/02 00:48:45;;;;;;;37.63;31.57;;;7.20;99.90;;;;;;5077263;28;20687;-76
2021/05/02 00:51:15;;;;;;;31.90;28.60;;;7.20;99.90;;;;;;5075326;28;20187;-76
2021/05/02 00:53:50;;;;;;;32.83;29.33;;;7.20;99.90;;;;;;5077273;28;20267;-76
2021/05/02 00:56:22;;;;;;;33.33;29.30;;;7.20;99.90;;;;;;5078199;28;20558;-76
2021/05/02 00:59:00;;;;;;;35.73;30.57;;;7.20;99.90;;;;;;5076643;28;20203;-76
2021/05/02 01:01:30;;;;;;;32.33;27.87;;;7.20;99.90;;;;;;5077955;28;20195;-76
2021/05/02 01:03:59;;;;;;;31.23;28.03;;;7.20;99.90;;;;;;5076328;28;20187;-76
2021/05/02 01:06:30;;;;;;;31.50;28.20;;;7.20;99.90;;;;;;5078392;28;20186;-76
2021/05/02 01:09:00;;;;;;;33.07;29.30;;;7.20;99.90;;;;;;5078183;28;20196;-76
2021/05/02 01:11:28;;;;;;;33.30;29.73;;;7.20;99.90;;;;;;5076377;28;20210;-76
2021/05/02 01:13:58;;;;;;;33.27;28.90;;;7.20;99.90;;;;;;5076764;28;20270;-76
2021/05/02 01:16:27;;;;;;;31.43;28.03;;;7.20;99.90;;;;;;5076977;28;20207;-76
2021/05/02 01:18:55;;;;;;;32.50;28.97;;;7.20;99.90;;;;;;5077328;28;20228;-76
2021/05/02 01:21:29;;;;;;;34.97;30.27;;;7.20;99.90;;;;;;5077486;28;20681;-76
2021/05/02 01:23:58;;;;;;;31.80;28.57;;;7.20;99.90;;;;;;5078605;28;20225;-76
2021/05/02 01:26:25;;;;;;;37.07;32.90;;;7.20;99.90;;;;;;5078070;28;20206;-76
2021/05/02 01:28:54;;;;;;;39.73;33.47;;;7.10;99.90;;;;;;5076700;28;20592;-76
2021/05/02 01:31:21;;;;;;;34.13;29.13;;;7.10;99.90;;;;;;5075831;28;20294;-76
2021/05/02 01:33:48;;;;;;;32.60;29.20;;;7.10;99.90;;;;;;5075726;28;20215;-76
2021/05/02 01:36:14;;;;;;;35.67;31.77;;;7.10;99.90;;;;;;5076346;28;20195;-76
2021/05/02 01:38:42;;;;;;;34.03;30.33;;;7.10;99.90;;;;;;5075309;28;20213;-75
2021/05/02 01:41:09;;;;;;;33.40;29.87;;;7.10;99.90;;;;;;5077515;28;20184;-76
2021/05/02 01:43:36;;;;;;;32.43;29.03;;;7.10;99.90;;;;;;5077452;28;20183;-76
2021/05/02 01:46:03;;;;;;;34.60;30.83;;;7.10;99.90;;;;;;5076641;28;20198;-76
2021/05/02 01:48:31;;;;;;;35.73;31.07;;;7.10;99.90;;;;;;5072496;28;20194;-76
2021/05/02 01:51:00;;;;;;;37.47;31.23;;;7.10;99.90;;;;;;5076584;28;20209;-76
2021/05/02 01:53:27;;;;;;;32.17;28.77;;;7.10;99.90;;;;;;5076559;28;20219;-76
2021/05/02 01:55:55;;;;;;;33.07;29.10;;;7.10;99.90;;;;;;5077379;28;20538;-76
2021/05/02 01:58:24;;;;;;;32.70;29.30;;;7.00;99.90;;;;;;5076198;28;20195;-76
2021/05/02 02:00:53;;;;;;;37.60;33.70;;;7.00;99.90;;;;;;5076153;28;20213;-76
2021/05/02 02:03:20;;;;;;;34.13;30.43;;;7.00;99.90;;;;;;5076440;28;20210;-76
2021/05/02 02:05:47;;;;;;;34.33;29.53;;;7.00;99.90;;;;;;5076609;28;20203;-76
2021/05/02 02:08:14;;;;;;;38.13;33.00;;;7.00;99.90;;;;;;5076171;28;20186;-76
2021/05/02 02:10:41;;;;;;;37.87;31.43;;;7.00;99.90;;;;;;5077007;28;20208;-76
2021/05/02 02:13:09;;;;;;;33.20;29.23;;;7.00;99.90;;;;;;5075870;28;20615;-76
2021/05/02 02:15:37;;;;;;;33.57;30.03;;;6.90;99.90;;;;;;5076203;28;20574;-76
2021/05/02 02:18:05;;;;;;;31.37;28.07;;;6.90;99.90;;;;;;5074989;28;20195;-76
2021/05/02 02:20:37;;;;;;;30.30;27.33;;;6.90;99.90;;;;;;5075172;28;20229;-76
2021/05/02 02:23:09;;;;;;;37.47;30.70;;;6.90;99.90;;;;;;5072919;28;20211;-76
2021/05/02 02:25:41;;;;;;;30.43;27.03;;;6.90;99.90;;;;;;5073246;28;20256;-76
2021/05/02 02:28:13;;;;;;;32.67;29.30;;;6.90;99.90;;;;;;5070297;28;20191;-76
2021/05/02 02:30:43;;;;;;;30.73;27.23;;;6.80;99.90;;;;;;5073193;28;20659;-76
2021/05/02 02:33:10;;;;;;;30.93;27.43;;;6.80;99.90;;;;;;5064626;28;20572;-76
2021/05/02 02:35:41;;;;;;;32.33;28.90;;;6.80;99.90;;;;;;5072232;28;20199;-76
2021/05/02 02:38:09;;;;;;;31.67;28.27;;;6.80;99.90;;;;;;5065212;28;20241;-76
2021/05/02 02:40:37;;;;;;;31.97;28.77;;;6.80;99.90;;;;;;5073554;28;20191;-76
2021/05/02 02:43:04;;;;;;;31.07;27.77;;;6.80;99.90;;;;;;5071563;28;20565;-76
2021/05/02 02:45:34;;;;;;;29.77;26.60;;;6.80;99.90;;;;;;5070741;28;20203;-76
2021/05/02 02:48:04;;;;;;;28.50;25.40;;;6.80;99.90;;;;;;5065779;28;20207;-75
2021/05/02 02:50:31;;;;;;;28.77;25.97;;;6.70;99.90;;;;;;5069945;28;20191;-76
2021/05/02 02:53:03;;;;;;;29.23;26.33;;;6.80;99.90;;;;;;5071603;28;20206;-77
2021/05/02 02:55:31;;;;;;;27.03;24.40;;;6.80;99.90;;;;;;5074884;28;20253;-76
2021/05/02 02:57:59;;;;;;;28.93;26.03;;;6.70;99.90;;;;;;5066366;28;21850;-77
2021/05/02 03:00:30;;;;;;;26.93;24.43;;;6.80;99.90;;;;;;5081727;28;20198;-76
2021/05/02 03:03:04;;;;;;;27.33;24.73;;;6.70;99.90;;;;;;5079150;28;20227;-76
2021/05/02 03:05:36;;;;;;;29.43;26.53;;;6.80;99.90;;;;;;5074197;28;20641;-77
2021/05/02 03:08:04;;;;;;;30.17;27.17;;;6.70;99.90;;;;;;5072489;28;20199;-77
2021/05/02 03:10:31;;;;;;;27.30;24.57;;;6.80;99.90;;;;;;5076943;28;20192;-76
2021/05/02 03:13:01;;;;;;;28.20;25.50;;;6.70;99.90;;;;;;5080647;28;20226;-76
2021/05/02 03:15:31;;;;;;;31.07;27.90;;;6.70;99.90;;;;;;5081816;28;20198;-76
2021/05/02 03:18:05;;;;;;;31.93;28.67;;;6.70;99.90;;;;;;5082930;28;20198;-76
2021/05/02 03:20:35;;;;;;;29.97;27.13;;;6.70;99.90;;;;;;5080593;28;20198;-76
2021/05/02 03:23:07;;;;;;;30.57;27.77;;;6.60;99.90;;;;;;5077869;22;20231;-75
2021/05/02 03:25:36;;;;;;;28.27;25.57;;;6.60;99.90;;;;;;5054083;28;20245;-75
2021/05/02 03:28:04;;;;;;;30.43;27.50;;;6.60;99.90;;;;;;5054490;28;20639;-75
2021/05/02 03:30:32;;;;;;;29.30;26.50;;;6.60;99.90;;;;;;5049030;28;20254;-75
2021/05/02 03:33:02;;;;;;;29.50;26.57;;;6.60;99.90;;;;;;5029698;28;20225;-75
2021/05/02 03:35:34;;;;;;;31.07;28.10;;;6.60;99.90;;;;;;5027378;28;20656;-74
2021/05/02 03:38:10;;;;;;;29.60;26.80;;;6.60;99.90;;;;;;5027577;28;20210;-75
2021/05/02 03:40:36;;;;;;;32.50;29.30;;;6.60;99.90;;;;;;5016014;28;20676;-75
2021/05/02 03:43:04;;;;;;;30.73;27.73;;;6.60;99.90;;;;;;5036325;28;20216;-76
2021/05/02 03:45:31;;;;;;;31.03;28.03;;;6.60;99.90;;;;;;5033428;28;20648;-76
2021/05/02 03:47:57;;;;;;;27.67;24.87;;;6.60;99.90;;;;;;5033683;28;20212;-76
2021/05/02 03:50:23;;;;;;;28.97;26.13;;;6.50;99.90;;;;;;5016816;28;20193;-77
2021/05/02 03:52:50;;;;;;;28.10;25.50;;;6.50;99.90;;;;;;5018306;28;20697;-76
2021/05/02 03:55:17;;;;;;;28.07;25.40;;;6.50;99.90;;;;;;5018268;28;20626;-77
2021/05/02 03:57:44;;;;;;;31.03;27.77;;;6.50;99.90;;;;;;5015438;28;20283;-76
2021/05/02 04:00:11;;;;;;;31.77;28.67;;;6.50;99.90;;;;;;5017234;28;20197;-77
2021/05/02 04:02:37;;;;;;;30.87;27.83;;;6.50;99.90;;;;;;5018444;28;20224;-76
2021/05/02 04:05:04;;;;;;;28.67;25.87;;;6.50;99.90;;;;;;5020928;28;20192;-77
2021/05/02 04:07:31;;;;;;;29.53;26.60;;;6.40;99.90;;;;;;5034296;28;20220;-77
2021/05/02 04:09:58;;;;;;;29.67;26.80;;;6.40;99.90;;;;;;5020703;28;20259;-76
2021/05/02 04:12:24;;;;;;;31.90;28.80;;;6.40;99.90;;;;;;5016007;28;20227;-77
2021/05/02 04:14:51;;;;;;;28.97;26.23;;;6.40;99.90;;;;;;5016929;28;20258;-77
2021/05/02 04:17:17;;;;;;;31.80;28.77;;;6.40;99.90;;;;;;5020668;28;20201;-76
2021/05/02 04:19:45;;;;;;;30.90;28.00;;;6.30;99.90;;;;;;5037807;28;20199;-77
2021/05/02 04:22:14;;;;;;;33.07;29.63;;;6.30;99.90;;;;;;5029729;28;20223;-78
2021/05/02 04:24:41;;;;;;;29.57;26.77;;;6.30;99.90;;;;;;5040714;28;20195;-76
2021/05/02 04:27:08;;;;;;;31.90;28.77;;;6.30;99.90;;;;;;5038425;28;20216;-77
2021/05/02 04:29:35;;;;;;;28.37;25.60;;;6.20;99.90;;;;;;5037259;28;20192;-77
2021/05/02 04:32:03;;;;;;;32.80;29.57;;;6.20;99.90;;;;;;5031567;28;20224;-77
2021/05/02 04:34:29;;;;;;;30.87;27.73;;;6.20;99.90;;;;;;5036864;28;20216;-79
2021/05/02 04:36:57;;;;;;;34.10;30.57;;;6.30;99.90;;;;;;5031721;28;20207;-78
2021/05/02 04:39:24;;;;;;;33.20;30.03;;;6.20;99.90;;;;;;5044190;28;20612;-77
2021/05/02 04:41:51;;;;;;;32.70;29.37;;;6.30;99.90;;;;;;5038838;28;20227;-78
2021/05/02 04:44:18;;;;;;;33.03;29.93;;;6.20;99.90;;;;;;5040684;28;20237;-76
2021/05/02 04:46:45;;;;;;;36.03;32.30;;;6.20;99.90;;;;;;5035461;28;20203;-77
2021/05/02 04:49:11;;;;;;;33.30;29.93;;;6.30;99.90;;;;;;5037694;28;20200;-81
2021/05/02 04:51:39;;;;;;;32.67;29.57;;;6.30;99.90;;;;;;5032666;28;20200;-78
2021/05/02 04:54:06;;;;;;;34.60;31.10;;;6.30;99.90;;;;;;5031836;28;20616;-77
2021/05/02 04:56:32;;;;;;;35.80;32.13;;;6.40;99.90;;;;;;5031473;28;20197;-75
2021/05/02 04:59:00;;;;;;;35.67;32.07;;;6.40;99.90;;;;;;5030486;28;20211;-76
2021/05/02 05:01:28;;;;;;;32.40;29.20;;;6.50;99.90;;;;;;5036986;28;20191;-75
2021/05/02 05:03:56;;;;;;;32.20;29.03;;;6.50;99.90;;;;;;5033588;28;20212;-75
2021/05/02 05:06:23;;;;;;;32.30;29.20;;;6.40;99.90;;;;;;5038362;28;20586;-76
2021/05/02 05:08:50;;;;;;;33.47;30.27;;;6.50;99.90;;;;;;5049607;28;20215;-75
2021/05/02 05:11:16;;;;;;;31.33;28.30;;;6.50;99.90;;;;;;5036683;28;21877;-76
2021/05/02 05:13:42;;;;;;;30.23;27.33;;;6.60;99.90;;;;;;5034594;28;20216;-76
2021/05/02 05:16:09;;;;;;;31.47;28.50;;;6.70;99.90;;;;;;5036188;28;20205;-76
2021/05/02 05:18:36;;;;;;;30.50;27.80;;;6.70;99.90;;;;;;5044993;28;20203;-75
2021/05/02 05:21:02;;;;;;;27.90;25.07;;;6.70;99.90;;;;;;5036435;28;20193;-76
2021/05/02 05:23:28;;;;;;;28.97;26.13;;;6.80;99.90;;;;;;5043985;28;20601;-76
2021/05/02 05:25:55;;;;;;;26.37;23.63;;;6.80;99.90;;;;;;5035092;28;20212;-76
2021/05/02 05:28:23;;;;;;;23.50;20.93;;;6.70;99.90;;;;;;5037945;28;20255;-81
2021/05/02 05:30:49;;;;;;;24.77;22.27;;;6.70;99.90;;;;;;5032780;28;20200;-75
2021/05/02 05:33:16;;;;;;;24.70;22.03;;;6.70;99.90;;;;;;5036215;28;20321;-75
2021/05/02 05:35:43;;;;;;;26.57;23.30;;;6.70;99.90;;;;;;5033738;28;20199;-77
2021/05/02 05:38:10;;;;;;;24.73;22.17;;;6.70;99.90;;;;;;5039346;28;20203;-76
2021/05/02 05:40:37;;;;;;;27.37;24.43;;;6.80;99.90;;;;;;5033433;28;20192;-76
2021/05/02 05:43:04;;;;;;;25.83;23.13;;;6.90;99.90;;;;;;5048483;28;20231;-76
2021/05/02 05:45:31;;;;;;;25.47;22.80;;;6.90;99.90;;;;;;5030356;28;20251;-76
2021/05/02 05:47:57;;;;;;;23.63;21.23;;;6.90;99.90;;;;;;5034198;28;20200;-76
2021/05/02 05:50:25;;;;;;;25.17;22.50;;;7.00;99.90;;;;;;5033313;28;20201;-76
2021/05/02 05:52:53;;;;;;;29.93;27.10;;;7.00;99.90;;;;;;5028917;28;20730;-75
2021/05/02 05:55:20;;;;;;;31.53;28.60;;;7.10;99.90;;;;;;5015374;28;20190;-76
2021/05/02 05:57:48;;;;;;;23.97;20.87;;;7.10;99.90;;;;;;5018686;28;20201;-76
2021/05/02 06:00:16;;;;;;;29.50;26.63;;;7.20;99.90;;;;;;5021181;28;20206;-76
2021/05/02 06:02:43;;;;;;;23.40;21.00;;;7.30;99.90;;;;;;5034659;28;20243;-76
2021/05/02 06:05:10;;;;;;;25.40;22.73;;;7.40;99.90;;;;;;5017764;28;20193;-76
2021/05/02 06:07:37;;;;;;;26.30;23.27;;;7.50;99.90;;;;;;5019225;28;20571;-76
2021/05/02 06:10:05;;;;;;;25.63;23.23;;;7.60;99.90;;;;;;5036338;28;20205;-76
2021/05/02 06:12:31;;;;;;;26.00;23.20;;;7.80;99.90;;;;;;5039468;28;20714;-75
2021/05/02 06:14:58;;;;;;;23.43;20.77;;;7.90;99.90;;;;;;5038427;28;20221;-77
2021/05/02 06:17:24;;;;;;;22.53;20.23;;;8.00;99.90;;;;;;5041369;28;20775;-77
2021/05/02 06:19:50;;;;;;;21.60;19.43;;;8.10;99.90;;;;;;5039808;28;20198;-78
2021/05/02 06:22:17;;;;;;;24.47;22.03;;;8.20;99.90;;;;;;5031500;28;20234;-78
2021/05/02 06:24:43;;;;;;;22.17;19.90;;;8.40;99.90;;;;;;5037062;28;20241;-79
2021/05/02 06:27:11;;;;;;;22.83;20.53;;;8.50;99.90;;;;;;5035642;28;20207;-77
2021/05/02 06:29:37;;;;;;;21.47;19.20;;;8.60;99.90;;;;;;5033419;28;20209;-78
2021/05/02 06:32:04;;;;;;;20.97;18.83;;;8.70;99.90;;;;;;5038232;28;20238;-77
2021/05/02 06:34:30;;;;;;;20.27;17.87;;;8.90;99.90;;;;;;5038835;28;20575;-80
2021/05/02 06:36:58;;;;;;;26.73;24.43;;;8.90;99.90;;;;;;5034418;28;20215;-83
2021/05/02 06:39:25;;;;;;;23.80;21.70;;;8.90;99.90;;;;;;5033839;28;20238;-78
2021/05/02 06:41:52;;;;;;;23.37;21.33;;;9.00;99.90;;;;;;5032085;28;20228;-77
2021/05/02 06:44:20;;;;;;;23.53;21.37;;;9.00;99.90;;;;;;5030749;28;20191;-78
2021/05/02 06:46:46;;;;;;;22.13;20.20;;;9.10;99.90;;;;;;5033697;28;20192;-78
2021/05/02 06:49:12;;;;;;;22.27;20.17;;;9.20;99.90;;;;;;5036197;28;20233;-77
2021/05/02 06:51:39;;;;;;;22.00;20.00;;;9.30;99.90;;;;;;5047452;28;20652;-78
2021/05/02 06:54:06;;;;;;;19.83;18.00;;;9.50;99.90;;;;;;5032423;28;20623;-78
2021/05/02 06:56:33;;;;;;;20.03;18.30;;;9.90;99.90;;;;;;5033957;28;20200;-77
2021/05/02 06:58:59;;;;;;;21.17;19.40;;;10.40;99.90;;;;;;5032519;28;20208;-77
2021/05/02 07:01:27;;;;;;;20.73;18.97;;;11.00;99.90;;;;;;5033190;28;20575;-77
2021/05/02 07:03:53;;;;;;;19.53;17.93;;;11.50;99.90;;;;;;5033801;28;20212;-77
2021/05/02 07:06:19;;;;;;;21.13;19.33;;;11.90;99.90;;;;;;5039856;28;20195;-77
2021/05/02 07:08:46;;;;;;;17.90;16.30;;;12.00;99.90;;;;;;5035896;28;20200;-77
2021/05/02 07:11:12;;;;;;;19.43;17.83;;;12.10;99.90;;;;;;5037613;28;20190;-77
2021/05/02 07:13:38;;;;;;;19.00;17.47;;;12.00;99.90;;;;;;5035678;28;20218;-78
2021/05/02 07:16:05;;;;;;;18.77;17.17;;;11.90;99.90;;;;;;5034785;28;20198;-78
2021/05/02 07:18:34;;;;;;;19.80;18.10;;;11.70;99.90;;;;;;5041649;28;20262;-78
2021/05/02 07:21:01;;;;;;;21.67;19.87;;;11.50;99.90;;;;;;5034373;28;20279;-76
2021/05/02 07:23:27;;;;;;;19.10;17.50;;;11.50;99.90;;;;;;5039594;28;20230;-77
2021/05/02 07:25:54;;;;;;;18.80;17.17;;;11.50;99.90;;;;;;5033021;28;20205;-75
2021/05/02 07:28:20;;;;;;;19.30;17.60;;;11.60;99.90;;;;;;5034936;28;20252;-77
2021/05/02 07:30:47;;;;;;;18.67;17.17;;;11.70;99.90;;;;;;5048191;28;20213;-77
2021/05/02 07:33:13;;;;;;;19.07;17.37;;;11.50;99.90;;;;;;5030336;28;20221;-77
2021/05/02 07:35:40;;;;;;;19.73;18.03;;;11.80;99.90;;;;;;5032926;28;20198;-77
2021/05/02 07:38:07;;;;;;;19.17;17.57;;;11.70;99.90;;;;;;5027586;28;20194;-77
2021/05/02 07:40:34;;;;;;;18.73;17.13;;;11.80;99.90;;;;;;5040074;28;20625;-77
2021/05/02 07:43:01;;;;;;;17.90;16.30;;;11.90;99.90;;;;;;5031448;28;20278;-79
2021/05/02 07:45:28;;;;;;;18.20;16.60;;;11.90;99.90;;;;;;5039276;28;20193;-78
2021/05/02 07:47:54;;;;;;;17.93;16.43;;;12.00;99.90;;;;;;5031386;28;20256;-75
2021/05/02 07:50:21;;;;;;;16.43;15.13;;;12.10;99.90;;;;;;5032821;28;20575;-77
2021/05/02 07:52:49;;;;;;;18.70;17.20;;;12.20;99.90;;;;;;5035429;28;20228;-78
2021/05/02 07:55:15;;;;;;;17.77;16.17;;;12.10;99.90;;;;;;5032217;28;20225;-76
2021/05/02 07:57:41;;;;;;;17.63;16.13;;;12.00;99.90;;;;;;5032260;28;20213;-77
2021/05/02 08:00:08;;;;;;;19.67;18.07;;;11.80;99.90;;;;;;5032175;28;20484;-76
2021/05/02 08:02:40;;;;;;;18.00;16.50;;;11.80;99.90;;;;;;5040795;28;20575;-77
2021/05/02 08:05:08;;;;;;;17.57;16.07;;;11.70;99.90;;;;;;5026501;28;20625;-78
2021/05/02 08:07:35;;;;;;;17.50;15.90;;;11.70;99.90;;;;;;5033604;28;20202;-77
2021/05/02 08:10:02;;;;;;;16.90;15.50;;;11.70;99.90;;;;;;5032524;28;20214;-78
2021/05/02 08:12:28;;;;;;;17.73;16.23;;;11.80;99.90;;;;;;5035734;28;20717;-75
2021/05/02 08:14:55;;;;;;;17.83;16.23;;;11.70;99.90;;;;;;5029250;28;20575;-77
2021/05/02 08:17:21;;;;;;;20.43;18.43;;;11.70;99.90;;;;;;5032929;28;20188;-78
2021/05/02 08:19:47;;;;;;;18.60;16.87;;;11.70;99.90;;;;;;5036172;28;20205;-78
2021/05/02 08:22:14;;;;;;;16.83;15.33;;;11.90;99.90;;;;;;5029956;28;20234;-77
2021/05/02 08:24:41;;;;;;;16.97;15.47;;;12.20;99.90;;;;;;5037144;28;20256;-76
2021/05/02 08:27:08;;;;;;;16.43;14.93;;;12.30;99.90;;;;;;5030761;28;20201;-78
2021/05/02 08:29:34;;;;;;;15.60;14.20;;;12.20;99.90;;;;;;5036005;28;20192;-77
2021/05/02 08:32:00;;;;;;;17.63;16.03;;;12.00;99.90;;;;;;5029387;28;20223;-77
2021/05/02 08:34:27;;;;;;;15.63;14.33;;;11.80;99.90;;;;;;5046788;28;20723;-78
2021/05/02 08:36:53;;;;;;;16.83;15.33;;;11.50;99.90;;;;;;5032860;28;20201;-76
2021/05/02 08:39:20;;;;;;;16.27;14.90;;;11.30;99.90;;;;;;5038128;28;20198;-81
2021/05/02 08:41:46;;;;;;;16.60;15.20;;;11.10;99.90;;;;;;5033580;28;20206;-77
2021/05/02 08:44:17;;;;;;;17.10;15.60;;;10.90;99.90;;;;;;5039234;28;20189;-77
2021/05/02 08:46:43;;;;;;;19.20;17.50;;;10.70;99.90;;;;;;5034289;28;20207;-77
2021/05/02 08:49:10;;;;;;;18.17;16.47;;;10.50;99.90;;;;;;5039678;28;20226;-78
2021/05/02 08:51:36;;;;;;;17.87;16.30;;;10.50;99.90;;;;;;5037854;28;20692;-77
2021/05/02 08:54:03;;;;;;;17.30;15.90;;;10.50;99.90;;;;;;5043056;28;20218;-76
2021/05/02 08:56:29;;;;;;;18.13;16.63;;;10.60;99.90;;;;;;5037260;28;20222;-77
2021/05/02 08:58:56;;;;;;;18.20;16.30;;;10.80;99.90;;;;;;5040465;28;20269;-77
2021/05/02 09:01:28;;;;;;;19.30;17.57;;;11.20;99.90;;;;;;5038362;28;20193;-77
2021/05/02 09:03:54;;;;;;;17.23;15.83;;;12.00;99.90;;;;;;5040523;28;20220;-77
2021/05/02 09:06:22;;;;;;;19.60;17.73;;;12.40;99.90;;;;;;5037645;28;20700;-77
2021/05/02 09:08:50;;;;;;;18.33;16.83;;;12.60;99.90;;;;;;5036272;28;20210;-77
2021/05/02 09:11:18;;;;;;;18.07;16.47;;;12.40;99.90;;;;;;5035980;28;20196;-77
2021/05/02 09:13:50;;;;;;;16.63;15.13;;;12.40;99.90;;;;;;5038533;28;20222;-77
2021/05/02 09:16:17;;;;;;;17.20;15.70;;;12.40;99.90;;;;;;5041236;28;20206;-77
2021/05/02 09:18:48;;;;;;;15.43;14.03;;;12.50;99.90;;;;;;5039145;28;20206;-77
2021/05/02 09:21:26;;;;;;;18.13;16.47;;;12.60;99.90;;;;;;5037814;28;20196;-77
2021/05/02 09:23:54;;;;;;;15.47;14.17;;;12.50;99.90;;;;;;5117508;22;20593;-81
2021/05/02 09:26:23;;;;;;;15.80;14.47;;;12.50;99.90;;;;;;5106989;28;20272;-78
2021/05/02 09:28:53;;;;;;;15.23;13.83;;;12.40;99.90;;;;;;5125727;27;20576;-77
2021/05/02 09:31:21;;;;;;;10.90;9.80;;;12.40;99.90;;;;;;5113002;28;20227;-77
2021/05/02 09:33:50;;;;;;;11.90;10.73;;;12.60;99.90;;;;;;5107203;28;20217;-77
2021/05/02 09:36:18;;;;;;;10.97;9.87;;;12.80;99.90;;;;;;5104051;28;20570;-79
2021/05/02 09:38:46;;;;;;;11.17;10.07;;;13.00;99.90;;;;;;5102637;28;20202;-79
2021/05/02 09:41:13;;;;;;;11.80;10.70;;;13.40;99.90;;;;;;5107641;28;20193;-78
2021/05/02 09:43:43;;;;;;;13.80;12.30;;;13.60;99.90;;;;;;5102980;27;20677;-82
2021/05/02 09:46:33;;;;;;;15.43;13.87;;;13.40;99.90;;;;;;5094459;28;20199;-81
2021/05/02 09:49:11;;;;;;;14.20;12.83;;;13.60;99.90;;;;;;5107636;28;20220;-77
2021/05/02 09:51:39;;;;;;;15.37;14.07;;;13.80;99.90;;;;;;5100849;28;20206;-80
2021/05/02 09:54:11;;;;;;;15.73;14.43;;;13.50;99.90;;;;;;5104311;28;20215;-78
2021/05/02 09:56:48;;;;;;;14.03;12.90;;;13.30;99.90;;;;;;5085424;28;20190;-81
2021/05/02 09:59:35;;;;;;;14.60;13.30;;;13.30;99.90;;;;;;5089443;28;20193;-78
2021/05/02 10:02:26;;;;;;;15.27;13.97;;;13.50;99.90;;;;;;5086256;28;20217;-78
2021/05/02 10:04:57;;;;;;;13.60;12.40;;;13.50;99.90;;;;;;5104738;28;20367;-78
2021/05/02 10:07:26;;;;;;;12.90;11.80;;;13.70;99.90;;;;;;5089437;28;20229;-78
2021/05/02 10:09:56;;;;;;;13.83;12.53;;;13.90;99.90;;;;;;5099922;28;20193;-78
2021/05/02 10:12:23;;;;;;;13.00;11.90;;;14.10;99.90;;;;;;5110442;28;20246;-77
2021/05/02 10:14:50;;;;;;;13.10;12.03;;;14.10;99.90;;;;;;5112464;28;20205;-77
2021/05/02 10:17:17;;;;;;;13.10;12.00;;;14.20;99.90;;;;;;5126640;27;20220;-78
2021/05/02 10:19:44;;;;;;;12.43;11.37;;;14.40;99.90;;;;;;5110267;28;20198;-78
2021/05/02 10:22:11;;;;;;;13.23;12.03;;;14.40;99.90;;;;;;5105367;28;20201;-78
2021/05/02 10:24:38;;;;;;;14.20;13.00;;;14.10;99.90;;;;;;5105207;28;20193;-78
2021/05/02 10:27:08;;;;;;;14.27;13.17;;;14.10;99.90;;;;;;5110765;28;20198;-78
2021/05/02 10:29:37;;;;;;;15.77;14.57;;;14.10;99.90;;;;;;5126257;27;20189;-77
2021/05/02 10:32:06;;;;;;;16.93;15.53;;;13.90;99.90;;;;;;5091404;28;20651;-78
2021/05/02 10:34:34;;;;;;;15.17;13.97;;;13.60;99.90;;;;;;5081635;28;20211;-78
2021/05/02 10:37:32;;;;;;;16.80;15.40;;;13.50;99.90;;;;;;5090057;28;20233;-78
2021/05/02 10:40:02;;;;;;;15.70;14.30;;;13.30;99.90;;;;;;5085657;28;20220;-78
2021/05/02 10:42:40;;;;;;;16.83;15.30;;;13.10;99.90;;;;;;5086713;28;20809;-78
2021/05/02 10:45:42;;;;;;;16.63;15.23;;;13.10;99.90;;;;;;5092210;28;20559;-77
2021/05/02 10:48:31;;;;;;;17.57;16.07;;;12.80;99.90;;;;;;5081547;28;20625;-77
2021/05/02 10:50:58;;;;;;;18.47;16.77;;;12.80;99.90;;;;;;5080629;28;20255;-77
2021/05/02 10:53:26;;;;;;;16.23;14.83;;;12.80;99.90;;;;;;5083988;28;20291;-77
2021/05/02 10:55:56;;;;;;;15.30;14.00;;;12.90;99.90;;;;;;5089838;28;20197;-77
2021/05/02 10:58:24;;;;;;;15.23;14.00;;;13.00;99.90;;;;;;5084393;28;20232;-77
2021/05/02 11:00:56;;;;;;;15.63;14.33;;;12.90;99.90;;;;;;5086791;28;20239;-78
2021/05/02 11:03:54;;;;;;;16.67;15.27;;;12.80;99.90;;;;;;5078772;28;20249;-77
2021/05/02 11:06:59;;;;;;;17.30;15.80;;;12.70;99.90;;;;;;5086768;28;20209;-77
2021/05/02 11:09:29;;;;;;;17.40;15.67;;;12.40;99.90;;;;;;5079922;28;20287;-79
2021/05/02 11:11:59;;;;;;;18.17;16.57;;;12.30;99.90;;;;;;5089945;28;20292;-77
2021/05/02 11:14:36;;;;;;;17.73;16.10;;;12.10;99.90;;;;;;5089607;28;20213;-77
2021/05/02 11:17:26;;;;;;;16.13;14.77;;;11.80;99.90;;;;;;5094608;28;20204;-78
2021/05/02 11:19:55;;;;;;;17.83;16.27;;;11.80;99.90;;;;;;5105771;28;20200;-78
2021/05/02 11:22:22;;;;;;;16.90;15.53;;;11.80;99.90;;;;;;5103627;28;20249;-78
2021/05/02 11:24:55;;;;;;;18.27;16.67;;;12.00;99.90;;;;;;5102967;28;20199;-78
2021/05/02 11:27:44;;;;;;;18.87;17.17;;;12.20;99.90;;;;;;5088466;28;20604;-78
2021/05/02 11:30:25;;;;;;;31.70;22.27;;;12.40;99.90;;;;;;5099096;28;20225;-78
2021/05/02 11:32:53;;;;;;;21.33;19.10;;;12.50;99.90;;;;;;5087962;28;20236;-78
2021/05/02 11:35:56;;;;;;;18.73;17.03;;;12.70;99.90;;;;;;5095280;28;20204;-77
2021/05/02 11:38:39;;;;;;;17.57;15.97;;;12.60;99.90;;;;;;5099668;28;20616;-77
2021/05/02 11:41:09;;;;;;;16.77;15.27;;;12.60;99.90;;;;;;5096350;28;20189;-78
2021/05/02 11:43:40;;;;;;;17.23;15.63;;;12.60;99.90;;;;;;5097233;28;20239;-78
2021/05/02 11:46:16;;;;;;;16.20;14.80;;;12.60;99.90;;;;;;5099317;28;20705;-78
2021/05/02 11:48:43;;;;;;;15.03;13.77;;;12.60;99.90;;;;;;5092471;28;20687;-78
2021/05/02 11:51:16;;;;;;;15.03;13.90;;;12.60;99.90;;;;;;5083473;28;20193;-78
2021/05/02 11:53:46;;;;;;;17.57;16.07;;;12.60;99.90;;;;;;5090770;28;20643;-77
2021/05/02 11:56:16;;;;;;;14.63;13.37;;;12.70;99.90;;;;;;5094284;28;20225;-78
2021/05/02 11:58:42;;;;;;;15.23;13.83;;;13.00;99.90;;;;;;5084364;28;20204;-78
2021/05/02 12:01:14;;;;;;;13.47;12.37;;;13.20;99.90;;;;;;5092077;28;20202;-79
2021/05/02 12:03:41;;;;;;;12.87;11.87;;;13.50;99.90;;;;;;5099668;28;20216;-78
2021/05/02 12:06:09;;;;;;;11.00;10.20;;;13.60;99.90;;;;;;5103520;28;20258;-79
2021/05/02 12:08:35;;;;;;;10.90;10.10;;;13.70;99.90;;;;;;5103560;28;20692;-79
2021/05/02 12:11:10;;;;;;;11.77;10.80;;;14.00;99.90;;;;;;5084719;28;20242;-79
2021/05/02 12:13:39;;;;;;;10.55;9.80;;;14.30;99.90;;;;;;5094831;28;20224;-79
2021/05/02 12:16:08;;;;;;;10.83;10.03;;;14.50;99.90;;;;;;5090021;28;20272;-76
2021/05/02 12:18:45;;;;;;;11.60;10.63;;;14.40;99.90;;;;;;5089446;28;20198;-76
2021/05/02 12:21:12;;;;;;;11.50;10.50;;;14.20;99.90;;;;;;5087778;28;20193;-76
2021/05/02 12:23:39;;;;;;;11.57;10.67;;;13.90;99.90;;;;;;5096298;28;20586;-76
2021/05/02 12:26:09;;;;;;;10.93;10.13;;;13.50;99.90;;;;;;5090088;28;20272;-76
2021/05/02 12:28:36;;;;;;;12.50;11.50;;;13.00;99.90;;;;;;5095877;28;20197;-74
2021/05/02 12:31:04;;;;;;;13.53;12.43;;;12.60;99.90;;;;;;5092870;28;20209;-75
2021/05/02 12:33:35;;;;;;;12.70;11.60;;;12.20;99.90;;;;;;5089802;28;20226;-77
2021/05/02 12:36:03;;;;;;;13.67;12.60;;;11.70;99.90;;;;;;5093874;28;20215;-77
2021/05/02 12:38:30;;;;;;;13.30;12.10;;;11.40;99.90;;;;;;5095483;28;20223;-77
2021/05/02 12:40:56;;;;;;;14.70;13.40;;;11.10;99.90;;;;;;5106243;28;20225;-77
2021/05/02 12:43:24;;;;;;;14.20;13.00;;;10.70;99.90;;;;;;5095483;28;20812;-77